sensor_id;sensor_type;location;lat;lon;timestamp;pressure;altitude;pressure_sealevel;temperature;humidity
40946;BME280;55635;50.264;11.918;2023-05-12T00:01:16;95507.53;;;14.03;85.57
40946;BME280;55635;50.264;11.918;2023-05-12T00:03:56;95507.31;;;14.04;85.74
40946;BME280;55635;50.264;11.918;2023-05-12T00:06:37;95508.97;;;14.05;85.21
40946;BME280;55635;50.264;11.918;2023-05-12T00:09:18;95505.28;;;14.00;86.77
40946;BME280;55635;50.264;11.918;2023-05-12T00:11:59;95513.69;;;14.03;85.09
40946;BME280;55635;50.264;11.918;2023-05-12T00:14:41;95511.22;;;14.02;85.05
40946;BME280;55635;50.264;11.918;2023-05-12T00:17:22;95508.56;;;14.02;85.12
40946;BME280;55635;50.264;11.918;2023-05-12T00:20:03;95515.13;;;13.99;85.14
40946;BME280;55635;50.264;11.918;2023-05-12T00:22:44;95507.13;;;13.93;85.83
40946;BME280;55635;50.264;11.918;2023-05-12T00:25:25;95511.03;;;13.90;85.86
40946;BME280;55635;50.264;11.918;2023-05-12T00:28:06;95516.56;;;13.82;87.28
40946;BME280;55635;50.264;11.918;2023-05-12T00:30:47;95511.66;;;13.86;87.13
40946;BME280;55635;50.264;11.918;2023-05-12T00:33:29;95508.56;;;13.89;85.86
40946;BME280;55635;50.264;11.918;2023-05-12T00:36:10;95510.41;;;13.88;85.17
40946;BME280;55635;50.264;11.918;2023-05-12T00:38:51;95501.41;;;13.83;84.91
40946;BME280;55635;50.264;11.918;2023-05-12T00:41:32;95513.13;;;13.82;84.78
40946;BME280;55635;50.264;11.918;2023-05-12T00:44:13;95502.88;;;13.79;84.99
40946;BME280;55635;50.264;11.918;2023-05-12T00:46:54;95516.16;;;13.85;84.99
40946;BME280;55635;50.264;11.918;2023-05-12T00:49:36;95511.06;;;13.77;84.87
40946;BME280;55635;50.264;11.918;2023-05-12T00:52:17;95500.81;;;13.74;86.35
40946;BME280;55635;50.264;11.918;2023-05-12T00:55:00;95504.06;;;13.83;85.26
40946;BME280;55635;50.264;11.918;2023-05-12T00:57:42;95511.88;;;13.78;84.80
40946;BME280;55635;50.264;11.918;2023-05-12T01:00:24;95513.31;;;13.74;84.81
40946;BME280;55635;50.264;11.918;2023-05-12T01:03:05;95503.47;;;13.68;84.21
40946;BME280;55635;50.264;11.918;2023-05-12T01:06:05;95504.94;;;13.63;84.31
40946;BME280;55635;50.264;11.918;2023-05-12T01:08:49;95505.78;;;13.57;84.34
40946;BME280;55635;50.264;11.918;2023-05-12T01:11:31;95513.94;;;13.56;84.98
40946;BME280;55635;50.264;11.918;2023-05-12T01:14:12;95503.50;;;13.48;85.01
40946;BME280;55635;50.264;11.918;2023-05-12T01:16:59;95511.50;;;13.48;85.04
40946;BME280;55635;50.264;11.918;2023-05-12T01:19:49;95515.00;;;13.42;84.85
40946;BME280;55635;50.264;11.918;2023-05-12T01:22:32;95513.53;;;13.39;85.16
40946;BME280;55635;50.264;11.918;2023-05-12T01:25:15;95509.84;;;13.27;86.77
40946;BME280;55635;50.264;11.918;2023-05-12T01:27:58;95513.31;;;13.21;87.20
40946;BME280;55635;50.264;11.918;2023-05-12T01:30:39;95509.03;;;13.27;86.55
40946;BME280;55635;50.264;11.918;2023-05-12T01:33:25;95513.13;;;13.29;86.33
40946;BME280;55635;50.264;11.918;2023-05-12T01:36:06;95504.13;;;13.24;86.75
40946;BME280;55635;50.264;11.918;2023-05-12T01:38:48;95514.75;;;13.30;86.08
40946;BME280;55635;50.264;11.918;2023-05-12T01:41:29;95506.38;;;13.27;85.86
40946;BME280;55635;50.264;11.918;2023-05-12T01:44:10;95518.84;;;13.13;86.17
40946;BME280;55635;50.264;11.918;2023-05-12T01:46:52;95519.28;;;13.17;86.89
40946;BME280;55635;50.264;11.918;2023-05-12T01:49:33;95512.09;;;13.11;86.16
40946;BME280;55635;50.264;11.918;2023-05-12T01:52:15;95514.53;;;13.12;85.89
40946;BME280;55635;50.264;11.918;2023-05-12T01:54:56;95520.69;;;13.13;85.73
40946;BME280;55635;50.264;11.918;2023-05-12T01:57:38;95503.06;;;13.05;85.59
40946;BME280;55635;50.264;11.918;2023-05-12T02:00:19;95518.25;;;13.11;85.90
40946;BME280;55635;50.264;11.918;2023-05-12T02:03:03;95516.81;;;13.08;85.76
40946;BME280;55635;50.264;11.918;2023-05-12T02:05:44;95519.69;;;13.14;85.13
40946;BME280;55635;50.264;11.918;2023-05-12T02:08:24;95522.94;;;13.16;85.98
40946;BME280;55635;50.264;11.918;2023-05-12T02:11:07;95513.94;;;13.10;86.09
40946;BME280;55635;50.264;11.918;2023-05-12T02:13:48;95506.56;;;13.12;85.87
40946;BME280;55635;50.264;11.918;2023-05-12T02:16:30;95521.72;;;13.18;85.78
40946;BME280;55635;50.264;11.918;2023-05-12T02:19:10;95519.47;;;13.15;86.00
40946;BME280;55635;50.264;11.918;2023-05-12T02:21:51;95511.06;;;13.18;85.53
40946;BME280;55635;50.264;11.918;2023-05-12T02:24:32;95514.78;;;13.17;85.63
40946;BME280;55635;50.264;11.918;2023-05-12T02:27:13;95506.78;;;13.17;86.04
40946;BME280;55635;50.264;11.918;2023-05-12T02:29:54;95512.09;;;13.17;85.90
40946;BME280;55635;50.264;11.918;2023-05-12T02:32:36;95505.97;;;13.23;85.90
40946;BME280;55635;50.264;11.918;2023-05-12T02:35:19;95501.25;;;13.25;85.58
40946;BME280;55635;50.264;11.918;2023-05-12T02:38:01;95506.38;;;13.27;85.58
40946;BME280;55635;50.264;11.918;2023-05-12T02:40:42;95517.00;;;13.33;85.94
40946;BME280;55635;50.264;11.918;2023-05-12T02:43:23;95503.31;;;13.23;86.88
40946;BME280;55635;50.264;11.918;2023-05-12T02:46:04;95505.97;;;13.17;86.37
40946;BME280;55635;50.264;11.918;2023-05-12T02:48:45;95501.47;;;13.17;86.42
40946;BME280;55635;50.264;11.918;2023-05-12T02:51:26;95504.53;;;13.14;86.72
40946;BME280;55635;50.264;11.918;2023-05-12T02:54:07;95493.06;;;13.14;86.82
40946;BME280;55635;50.264;11.918;2023-05-12T02:56:48;95505.34;;;13.21;86.16
40946;BME280;55635;50.264;11.918;2023-05-12T02:59:29;95507.78;;;13.16;87.02
40946;BME280;55635;50.264;11.918;2023-05-12T03:02:10;95506.78;;;13.24;87.33
40946;BME280;55635;50.264;11.918;2023-05-12T03:04:51;95501.47;;;13.17;87.99
40946;BME280;55635;50.264;11.918;2023-05-12T03:07:32;95510.47;;;13.23;87.35
40946;BME280;55635;50.264;11.918;2023-05-12T03:10:13;95501.66;;;13.16;87.27
40946;BME280;55635;50.264;11.918;2023-05-12T03:12:54;95493.06;;;13.20;86.71
40946;BME280;55635;50.264;11.918;2023-05-12T03:15:35;95484.84;;;13.15;86.97
40946;BME280;55635;50.264;11.918;2023-05-12T03:18:16;95504.13;;;13.17;87.01
40946;BME280;55635;50.264;11.918;2023-05-12T03:20:57;95495.91;;;13.19;87.01
40946;BME280;55635;50.264;11.918;2023-05-12T03:23:39;95499.41;;;13.19;87.96
40946;BME280;55635;50.264;11.918;2023-05-12T03:26:20;95505.56;;;13.26;87.64
40946;BME280;55635;50.264;11.918;2023-05-12T03:29:00;95498.81;;;13.24;87.66
40946;BME280;55635;50.264;11.918;2023-05-12T03:31:41;95499.81;;;13.29;87.16
40946;BME280;55635;50.264;11.918;2023-05-12T03:34:23;95504.31;;;13.29;87.54
40946;BME280;55635;50.264;11.918;2023-05-12T03:37:04;95503.91;;;13.25;86.95
40946;BME280;55635;50.264;11.918;2023-05-12T03:39:45;95505.75;;;13.31;87.24
40946;BME280;55635;50.264;11.918;2023-05-12T03:42:26;95501.84;;;13.27;87.12
40946;BME280;55635;50.264;11.918;2023-05-12T03:45:08;95508.84;;;13.35;86.58
40946;BME280;55635;50.264;11.918;2023-05-12T03:47:49;95507.41;;;13.39;86.01
40946;BME280;55635;50.264;11.918;2023-05-12T03:50:31;95502.69;;;13.41;85.54
40946;BME280;55635;50.264;11.918;2023-05-12T03:53:14;95512.31;;;13.48;85.44
40946;BME280;55635;50.264;11.918;2023-05-12T03:55:55;95507.59;;;13.50;85.73
40946;BME280;55635;50.264;11.918;2023-05-12T03:58:36;95507.19;;;13.47;85.62
40946;BME280;55635;50.264;11.918;2023-05-12T04:01:24;95497.34;;;13.34;86.48
40946;BME280;55635;50.264;11.918;2023-05-12T04:04:05;95504.94;;;13.44;86.30
40946;BME280;55635;50.264;11.918;2023-05-12T04:06:46;95492.25;;;13.26;86.71
40946;BME280;55635;50.264;11.918;2023-05-12T04:09:30;95498.59;;;13.38;86.24
40946;BME280;55635;50.264;11.918;2023-05-12T04:12:12;95502.09;;;13.32;86.98
40946;BME280;55635;50.264;11.918;2023-05-12T04:14:53;95495.09;;;13.38;86.26
40946;BME280;55635;50.264;11.918;2023-05-12T04:17:34;95493.28;;;13.38;86.79
40946;BME280;55635;50.264;11.918;2023-05-12T04:20:15;95498.38;;;13.33;86.71
40946;BME280;55635;50.264;11.918;2023-05-12T04:22:56;95497.34;;;13.34;86.58
40946;BME280;55635;50.264;11.918;2023-05-12T04:25:41;95502.88;;;13.39;86.63
40946;BME280;55635;50.264;11.918;2023-05-12T04:28:22;95505.13;;;13.42;86.18
40946;BME280;55635;50.264;11.918;2023-05-12T04:31:03;95495.72;;;13.33;86.47
40946;BME280;55635;50.264;11.918;2023-05-12T04:33:45;95502.88;;;13.46;86.50
40946;BME280;55635;50.264;11.918;2023-05-12T04:36:26;95495.31;;;13.36;86.02
40946;BME280;55635;50.264;11.918;2023-05-12T04:39:07;95498.38;;;13.33;86.67
40946;BME280;55635;50.264;11.918;2023-05-12T04:41:49;95494.69;;;13.34;86.69
40946;BME280;55635;50.264;11.918;2023-05-12T04:44:30;95509.66;;;13.48;86.83
40946;BME280;55635;50.264;11.918;2023-05-12T04:47:12;95515.38;;;13.58;85.55
40946;BME280;55635;50.264;11.918;2023-05-12T04:49:53;95509.84;;;13.53;85.97
40946;BME280;55635;50.264;11.918;2023-05-12T04:52:33;95516.00;;;13.60;85.58
40946;BME280;55635;50.264;11.918;2023-05-12T04:55:15;95518.88;;;13.59;86.58
40946;BME280;55635;50.264;11.918;2023-05-12T04:57:56;95527.06;;;13.71;85.19
40946;BME280;55635;50.264;11.918;2023-05-12T05:00:37;95523.38;;;13.72;86.26
40946;BME280;55635;50.264;11.918;2023-05-12T05:03:18;95524.78;;;13.81;85.42
40946;BME280;55635;50.264;11.918;2023-05-12T05:05:59;95526.22;;;13.83;85.12
40946;BME280;55635;50.264;11.918;2023-05-12T05:08:41;95529.91;;;13.89;84.84
40946;BME280;55635;50.264;11.918;2023-05-12T05:11:22;95517.38;;;13.89;84.63
40946;BME280;55635;50.264;11.918;2023-05-12T05:14:03;95526.03;;;13.72;85.79
40946;BME280;55635;50.264;11.918;2023-05-12T05:16:46;95523.16;;;13.73;85.27
40946;BME280;55635;50.264;11.918;2023-05-12T05:19:28;95531.78;;;13.69;85.30
40946;BME280;55635;50.264;11.918;2023-05-12T05:22:09;95528.69;;;13.78;85.23
40946;BME280;55635;50.264;11.918;2023-05-12T05:24:50;95531.13;;;13.86;85.19
40946;BME280;55635;50.264;11.918;2023-05-12T05:27:31;95539.75;;;13.82;84.61
40946;BME280;55635;50.264;11.918;2023-05-12T05:30:12;95527.66;;;13.79;84.72
40946;BME280;55635;50.264;11.918;2023-05-12T05:32:54;95541.97;;;13.91;84.89
40946;BME280;55635;50.264;11.918;2023-05-12T05:35:35;95552.44;;;13.99;84.77
40946;BME280;55635;50.264;11.918;2023-05-12T05:38:16;95546.28;;;13.99;84.69
40946;BME280;55635;50.264;11.918;2023-05-12T05:40:57;95528.03;;;13.96;84.97
40946;BME280;55635;50.264;11.918;2023-05-12T05:43:40;95547.50;;;14.09;84.34
40946;BME280;55635;50.264;11.918;2023-05-12T05:46:21;95545.03;;;14.08;84.52
40946;BME280;55635;50.264;11.918;2023-05-12T05:49:02;95546.47;;;14.04;84.45
40946;BME280;55635;50.264;11.918;2023-05-12T05:51:44;95548.94;;;14.12;83.94
40946;BME280;55635;50.264;11.918;2023-05-12T05:54:25;95552.19;;;14.21;83.32
40946;BME280;55635;50.264;11.918;2023-05-12T05:57:06;95558.97;;;14.36;82.84
40946;BME280;55635;50.264;11.918;2023-05-12T05:59:47;95555.25;;;14.37;83.59
40946;BME280;55635;50.264;11.918;2023-05-12T06:02:29;95554.81;;;14.47;82.32
40946;BME280;55635;50.264;11.918;2023-05-12T06:05:12;95560.75;;;14.55;82.21
40946;BME280;55635;50.264;11.918;2023-05-12T06:07:54;95561.66;;;14.74;81.86
40946;BME280;55635;50.264;11.918;2023-05-12T06:10:35;95568.03;;;14.80;82.11
40946;BME280;55635;50.264;11.918;2023-05-12T06:13:16;95560.63;;;14.82;82.20
40946;BME280;55635;50.264;11.918;2023-05-12T06:15:57;95575.53;;;14.96;80.70
40946;BME280;55635;50.264;11.918;2023-05-12T06:18:38;95576.72;;;15.06;80.24
40946;BME280;55635;50.264;11.918;2023-05-12T06:21:19;95572.63;;;15.10;79.81
40946;BME280;55635;50.264;11.918;2023-05-12T06:24:00;95570.94;;;15.16;79.50
40946;BME280;55635;50.264;11.918;2023-05-12T06:26:41;95557.56;;;15.16;79.79
40946;BME280;55635;50.264;11.918;2023-05-12T06:29:22;95576.09;;;15.42;80.06
40946;BME280;55635;50.264;11.918;2023-05-12T06:32:03;95573.13;;;15.57;79.42
40946;BME280;55635;50.264;11.918;2023-05-12T06:34:45;95576.53;;;15.70;78.88
40946;BME280;55635;50.264;11.918;2023-05-12T06:37:26;95582.38;;;15.86;77.84
40946;BME280;55635;50.264;11.918;2023-05-12T06:40:07;95583.50;;;15.96;76.46
40946;BME280;55635;50.264;11.918;2023-05-12T06:42:48;95588.69;;;16.16;76.69
40946;BME280;55635;50.264;11.918;2023-05-12T06:45:33;95589.22;;;16.24;75.73
40946;BME280;55635;50.264;11.918;2023-05-12T06:48:14;95569.97;;;16.34;76.74
40946;BME280;55635;50.264;11.918;2023-05-12T06:50:55;95587.50;;;16.55;76.02
40946;BME280;55635;50.264;11.918;2023-05-12T06:53:36;95574.31;;;16.53;75.27
40946;BME280;55635;50.264;11.918;2023-05-12T06:56:17;95579.00;;;16.58;74.03
40946;BME280;55635;50.264;11.918;2023-05-12T06:58:58;95579.56;;;16.66;74.50
40946;BME280;55635;50.264;11.918;2023-05-12T07:01:41;95575.97;;;16.72;74.43
40946;BME280;55635;50.264;11.918;2023-05-12T07:04:22;95580.28;;;16.73;74.24
40946;BME280;55635;50.264;11.918;2023-05-12T07:07:03;95574.63;;;17.00;73.22
40946;BME280;55635;50.264;11.918;2023-05-12T07:09:44;95570.88;;;17.01;72.28
40946;BME280;55635;50.264;11.918;2023-05-12T07:12:25;95570.84;;;17.19;71.51
40946;BME280;55635;50.264;11.918;2023-05-12T07:15:07;95582.41;;;17.31;71.65
40946;BME280;55635;50.264;11.918;2023-05-12T07:17:48;95577.44;;;17.46;71.35
40946;BME280;55635;50.264;11.918;2023-05-12T07:20:29;95583.06;;;17.45;72.29
40946;BME280;55635;50.264;11.918;2023-05-12T07:23:10;95579.75;;;17.61;71.79
40946;BME280;55635;50.264;11.918;2023-05-12T07:25:51;95575.47;;;17.71;72.01
40946;BME280;55635;50.264;11.918;2023-05-12T07:28:33;95577.13;;;17.84;70.78
40946;BME280;55635;50.264;11.918;2023-05-12T07:31:17;95579.69;;;17.90;70.85
40946;BME280;55635;50.264;11.918;2023-05-12T07:33:58;95585.06;;;17.90;70.25
40946;BME280;55635;50.264;11.918;2023-05-12T07:36:39;95584.25;;;18.02;70.07
40946;BME280;55635;50.264;11.918;2023-05-12T07:39:20;95594.75;;;18.15;70.36
40946;BME280;55635;50.264;11.918;2023-05-12T07:42:04;95587.53;;;18.38;69.64
40946;BME280;55635;50.264;11.918;2023-05-12T07:44:45;95569.91;;;18.42;67.14
40946;BME280;55635;50.264;11.918;2023-05-12T07:47:26;95579.47;;;18.73;65.60
40946;BME280;55635;50.264;11.918;2023-05-12T07:50:08;95579.53;;;18.90;64.17
40946;BME280;55635;50.264;11.918;2023-05-12T07:52:51;95573.31;;;19.41;63.17
40946;BME280;55635;50.264;11.918;2023-05-12T07:55:33;95588.47;;;19.75;62.28
40946;BME280;55635;50.264;11.918;2023-05-12T07:58:14;95584.63;;;19.88;60.01
40946;BME280;55635;50.264;11.918;2023-05-12T08:00:54;95587.50;;;19.81;58.04
40946;BME280;55635;50.264;11.918;2023-05-12T08:03:38;95585.06;;;20.13;56.38
40946;BME280;55635;50.264;11.918;2023-05-12T08:06:19;95580.31;;;19.14;55.98
40946;BME280;55635;50.264;11.918;2023-05-12T08:09:00;95585.06;;;19.51;54.32
40946;BME280;55635;50.264;11.918;2023-05-12T08:11:41;95584.25;;;19.51;58.16
40946;BME280;55635;50.264;11.918;2023-05-12T08:14:22;95580.81;;;20.34;56.11
40946;BME280;55635;50.264;11.918;2023-05-12T08:17:05;95578.50;;;20.59;56.12
40946;BME280;55635;50.264;11.918;2023-05-12T08:19:46;95587.47;;;20.26;52.77
40946;BME280;55635;50.264;11.918;2023-05-12T08:22:27;95576.13;;;20.62;52.03
40946;BME280;55635;50.264;11.918;2023-05-12T08:25:08;95571.34;;;21.30;51.57
40946;BME280;55635;50.264;11.918;2023-05-12T08:27:49;95578.81;;;21.23;49.99
40946;BME280;55635;50.264;11.918;2023-05-12T08:30:30;95578.22;;;20.99;49.67
40946;BME280;55635;50.264;11.918;2023-05-12T08:33:11;95592.06;;;20.86;51.84
40946;BME280;55635;50.264;11.918;2023-05-12T08:35:52;95581.06;;;20.87;49.05
40946;BME280;55635;50.264;11.918;2023-05-12T08:38:33;95581.09;;;20.92;50.70
40946;BME280;55635;50.264;11.918;2023-05-12T08:41:46;95582.19;;;21.13;49.11
40946;BME280;55635;50.264;11.918;2023-05-12T08:44:30;95584.25;;;20.84;48.97
40946;BME280;55635;50.264;11.918;2023-05-12T08:47:11;95578.72;;;20.74;49.56
40946;BME280;55635;50.264;11.918;2023-05-12T08:49:59;95587.63;;;20.36;50.31
40946;BME280;55635;50.264;11.918;2023-05-12T08:52:40;95590.78;;;20.17;52.95
40946;BME280;55635;50.264;11.918;2023-05-12T08:55:22;95585.31;;;20.45;53.87
40946;BME280;55635;50.264;11.918;2023-05-12T08:58:04;95591.31;;;20.52;52.31
40946;BME280;55635;50.264;11.918;2023-05-12T09:00:45;95583.47;;;20.67;50.08
40946;BME280;55635;50.264;11.918;2023-05-12T09:03:27;95591.69;;;21.15;52.19
40946;BME280;55635;50.264;11.918;2023-05-12T09:06:09;95588.97;;;21.64;49.38
40946;BME280;55635;50.264;11.918;2023-05-12T09:08:51;95596.09;;;22.02;48.20
40946;BME280;55635;50.264;11.918;2023-05-12T09:11:32;95584.81;;;22.42;48.27
40946;BME280;55635;50.264;11.918;2023-05-12T09:14:18;95588.84;;;21.27;51.10
40946;BME280;55635;50.264;11.918;2023-05-12T09:17:03;95595.19;;;19.33;55.16
40946;BME280;55635;50.264;11.918;2023-05-12T09:19:45;95595.22;;;18.81;54.44
40946;BME280;55635;50.264;11.918;2023-05-12T09:22:30;95594.44;;;19.49;53.26
40946;BME280;55635;50.264;11.918;2023-05-12T09:25:20;95578.13;;;20.00;53.06
40946;BME280;55635;50.264;11.918;2023-05-12T09:28:01;95600.78;;;19.71;52.86
40946;BME280;55635;50.264;11.918;2023-05-12T09:30:42;95583.66;;;19.94;51.44
40946;BME280;55635;50.264;11.918;2023-05-12T09:33:23;95589.69;;;21.54;52.08
40946;BME280;55635;50.264;11.918;2023-05-12T09:36:05;95584.81;;;22.42;49.35
40946;BME280;55635;50.264;11.918;2023-05-12T09:38:57;95589.00;;;22.64;46.68
40946;BME280;55635;50.264;11.918;2023-05-12T09:41:40;95577.34;;;22.96;46.19
40946;BME280;55635;50.264;11.918;2023-05-12T09:44:22;95581.44;;;21.93;45.85
40946;BME280;55635;50.264;11.918;2023-05-12T09:47:07;95585.19;;;21.65;47.32
40946;BME280;55635;50.264;11.918;2023-05-12T09:49:51;95586.84;;;21.66;47.78
40946;BME280;55635;50.264;11.918;2023-05-12T09:52:38;95588.34;;;21.30;47.92
40946;BME280;55635;50.264;11.918;2023-05-12T09:55:19;95589.06;;;21.04;52.24
40946;BME280;55635;50.264;11.918;2023-05-12T09:58:01;95592.97;;;22.15;48.21
40946;BME280;55635;50.264;11.918;2023-05-12T10:00:45;95596.41;;;22.05;46.90
40946;BME280;55635;50.264;11.918;2023-05-12T10:03:28;95586.63;;;22.68;44.60
40946;BME280;55635;50.264;11.918;2023-05-12T10:06:15;95577.84;;;22.93;43.87
40946;BME280;55635;50.264;11.918;2023-05-12T10:11:58;95575.38;;;22.81;43.03
40946;BME280;55635;50.264;11.918;2023-05-12T10:14:40;95581.97;;;21.14;48.86
40946;BME280;55635;50.264;11.918;2023-05-12T10:17:23;95574.28;;;19.80;51.59
40946;BME280;55635;50.264;11.918;2023-05-12T10:20:07;95575.84;;;19.19;52.73
40946;BME280;55635;50.264;11.918;2023-05-12T10:22:50;95583.31;;;18.89;53.63
40946;BME280;55635;50.264;11.918;2023-05-12T10:25:32;95585.00;;;19.07;51.76
40946;BME280;55635;50.264;11.918;2023-05-12T10:28:13;95596.13;;;19.27;52.48
40946;BME280;55635;50.264;11.918;2023-05-12T10:30:56;95595.09;;;19.84;51.95
40946;BME280;55635;50.264;11.918;2023-05-12T10:33:37;95582.59;;;20.83;50.83
40946;BME280;55635;50.264;11.918;2023-05-12T10:36:18;95575.63;;;20.66;50.12
40946;BME280;55635;50.264;11.918;2023-05-12T10:39:06;95573.56;;;20.34;49.94
40946;BME280;55635;50.264;11.918;2023-05-12T10:41:47;95574.50;;;19.62;50.56
40946;BME280;55635;50.264;11.918;2023-05-12T10:44:28;95574.31;;;20.30;51.21
40946;BME280;55635;50.264;11.918;2023-05-12T10:47:12;95573.63;;;20.23;48.57
40946;BME280;55635;50.264;11.918;2023-05-12T10:49:55;95573.31;;;20.02;52.72
40946;BME280;55635;50.264;11.918;2023-05-12T10:52:58;95585.41;;;20.33;47.85
40946;BME280;55635;50.264;11.918;2023-05-12T10:55:43;95573.31;;;20.02;49.35
40946;BME280;55635;50.264;11.918;2023-05-12T10:58:27;95586.09;;;20.12;47.67
40946;BME280;55635;50.264;11.918;2023-05-12T11:01:08;95583.00;;;20.03;49.06
40946;BME280;55635;50.264;11.918;2023-05-12T11:03:48;95575.53;;;20.05;50.09
40946;BME280;55635;50.264;11.918;2023-05-12T11:06:29;95574.84;;;19.65;52.43
40946;BME280;55635;50.264;11.918;2023-05-12T11:09:12;95584.13;;;18.89;53.48
40946;BME280;55635;50.264;11.918;2023-05-12T11:11:53;95583.34;;;18.77;54.59
40946;BME280;55635;50.264;11.918;2023-05-12T11:14:36;95584.84;;;18.73;53.26
40946;BME280;55635;50.264;11.918;2023-05-12T11:17:18;95575.66;;;19.66;53.22
40946;BME280;55635;50.264;11.918;2023-05-12T11:19:59;95582.75;;;19.72;52.71
40946;BME280;55635;50.264;11.918;2023-05-12T11:22:42;95581.06;;;19.99;50.87
40946;BME280;55635;50.264;11.918;2023-05-12T11:25:28;95585.97;;;19.57;53.21
40946;BME280;55635;50.264;11.918;2023-05-12T11:28:10;95576.91;;;19.46;52.11
40946;BME280;55635;50.264;11.918;2023-05-12T11:30:52;95582.75;;;20.93;48.54
40946;BME280;55635;50.264;11.918;2023-05-12T11:33:33;95579.50;;;20.20;52.09
40946;BME280;55635;50.264;11.918;2023-05-12T11:36:16;95593.03;;;20.25;51.65
40946;BME280;55635;50.264;11.918;2023-05-12T11:39:00;95596.56;;;19.75;51.98
40946;BME280;55635;50.264;11.918;2023-05-12T11:41:41;95592.53;;;18.23;54.36
40946;BME280;55635;50.264;11.918;2023-05-12T11:44:23;95595.34;;;18.86;53.38
40946;BME280;55635;50.264;11.918;2023-05-12T11:49:50;95597.22;;;19.26;55.33
40946;BME280;55635;50.264;11.918;2023-05-12T11:52:31;95596.72;;;19.57;53.95
40946;BME280;55635;50.264;11.918;2023-05-12T11:55:20;95607.47;;;19.85;48.60
40946;BME280;55635;50.264;11.918;2023-05-12T11:58:03;95603.25;;;19.89;48.71
40946;BME280;55635;50.264;11.918;2023-05-12T12:00:44;95615.72;;;19.95;48.89
40946;BME280;55635;50.264;11.918;2023-05-12T12:03:25;95600.66;;;19.49;49.05
40946;BME280;55635;50.264;11.918;2023-05-12T12:06:06;95607.31;;;19.92;50.57
40946;BME280;55635;50.264;11.918;2023-05-12T12:08:55;95617.53;;;20.06;50.61
40946;BME280;55635;50.264;11.918;2023-05-12T12:11:36;95623.13;;;19.88;48.15
40946;BME280;55635;50.264;11.918;2023-05-12T12:14:17;95624.78;;;19.61;49.11
40946;BME280;55635;50.264;11.918;2023-05-12T12:16:59;95622.31;;;19.31;50.41
40946;BME280;55635;50.264;11.918;2023-05-12T12:19:40;95618.09;;;19.35;48.87
40946;BME280;55635;50.264;11.918;2023-05-12T12:22:21;95631.78;;;19.34;48.15
40946;BME280;55635;50.264;11.918;2023-05-12T12:25:02;95621.59;;;19.47;48.87
40946;BME280;55635;50.264;11.918;2023-05-12T12:27:43;95620.19;;;19.45;48.48
40946;BME280;55635;50.264;11.918;2023-05-12T12:30:25;95615.06;;;19.32;49.87
40946;BME280;55635;50.264;11.918;2023-05-12T12:33:05;95625.91;;;19.48;49.39
40946;BME280;55635;50.264;11.918;2023-05-12T12:35:46;95627.34;;;19.28;50.58
40946;BME280;55635;50.264;11.918;2023-05-12T12:38:27;95617.28;;;19.63;50.37
40946;BME280;55635;50.264;11.918;2023-05-12T12:41:08;95623.31;;;19.53;49.97
40946;BME280;55635;50.264;11.918;2023-05-12T12:43:49;95622.59;;;19.58;50.47
40946;BME280;55635;50.264;11.918;2023-05-12T12:46:30;95622.09;;;19.61;49.19
40946;BME280;55635;50.264;11.918;2023-05-12T12:49:11;95626.66;;;19.61;49.21
40946;BME280;55635;50.264;11.918;2023-05-12T12:51:52;95611.88;;;19.91;49.51
40946;BME280;55635;50.264;11.918;2023-05-12T12:54:34;95629.84;;;20.19;49.93
40946;BME280;55635;50.264;11.918;2023-05-12T12:57:15;95619.19;;;20.24;49.18
40946;BME280;55635;50.264;11.918;2023-05-12T12:59:56;95629.53;;;20.49;51.22
40946;BME280;55635;50.264;11.918;2023-05-12T13:02:37;95624.56;;;20.41;48.52
40946;BME280;55635;50.264;11.918;2023-05-12T13:05:19;95629.78;;;20.47;49.96
40946;BME280;55635;50.264;11.918;2023-05-12T13:08:00;95631.91;;;20.62;49.19
40946;BME280;55635;50.264;11.918;2023-05-12T13:10:40;95626.19;;;20.58;49.27
40946;BME280;55635;50.264;11.918;2023-05-12T13:13:21;95624.75;;;20.34;47.80
40946;BME280;55635;50.264;11.918;2023-05-12T13:16:04;95633.81;;;20.45;49.00
40946;BME280;55635;50.264;11.918;2023-05-12T13:18:45;95628.41;;;20.45;48.97
40946;BME280;55635;50.264;11.918;2023-05-12T13:21:26;95626.94;;;20.37;48.00
40946;BME280;55635;50.264;11.918;2023-05-12T13:24:07;95630.53;;;20.26;46.84
40946;BME280;55635;50.264;11.918;2023-05-12T13:26:48;95622.84;;;20.18;47.59
40946;BME280;55635;50.264;11.918;2023-05-12T13:29:30;95626.38;;;20.35;47.09
40946;BME280;55635;50.264;11.918;2023-05-12T13:32:12;95622.50;;;20.64;46.68
40946;BME280;55635;50.264;11.918;2023-05-12T13:34:53;95624.31;;;20.59;48.03
40946;BME280;55635;50.264;11.918;2023-05-12T13:37:34;95622.94;;;20.40;46.32
40946;BME280;55635;50.264;11.918;2023-05-12T13:40:15;95619.97;;;20.58;47.42
40946;BME280;55635;50.264;11.918;2023-05-12T13:42:56;95622.31;;;20.71;47.40
40946;BME280;55635;50.264;11.918;2023-05-12T13:45:37;95623.25;;;20.60;47.65
40946;BME280;55635;50.264;11.918;2023-05-12T13:48:18;95618.91;;;20.59;46.81
40946;BME280;55635;50.264;11.918;2023-05-12T13:50:59;95620.78;;;20.58;47.04
40946;BME280;55635;50.264;11.918;2023-05-12T13:53:40;95622.63;;;20.36;46.66
40946;BME280;55635;50.264;11.918;2023-05-12T13:56:28;95621.94;;;20.46;46.82
40946;BME280;55635;50.264;11.918;2023-05-12T13:59:09;95619.91;;;20.53;47.29
40946;BME280;55635;50.264;11.918;2023-05-12T14:01:50;95627.72;;;20.71;46.66
40946;BME280;55635;50.264;11.918;2023-05-12T14:04:31;95619.69;;;20.38;46.01
40946;BME280;55635;50.264;11.918;2023-05-12T14:07:12;95626.00;;;20.65;46.83
40946;BME280;55635;50.264;11.918;2023-05-12T14:09:53;95616.00;;;20.60;45.95
40946;BME280;55635;50.264;11.918;2023-05-12T14:12:34;95619.84;;;20.48;46.31